Time;durP1;ratioP1;P1;durP2;ratioP2;P2;SDS_P1;SDS_P2;PMS_P1;PMS_P2;Temp;Humidity;BMP_temperature;BMP_pressure;BME280_temperature;BME280_humidity;BME280_pressure;Samples;Min_cycle;Max_cycle;Signal;HPM_P1;HPM_P2
2023/08/13 00:02:00;;;;;;;110.07;12.77;;;;;;;;;;5087231;28;20258;-53
2023/08/13 00:04:25;;;;;;;111.47;13.60;;;;;;;;;;5084190;28;20284;-56
2023/08/13 00:06:51;;;;;;;129.88;13.65;;;;;;;;;;5083633;28;20046;-54
2023/08/13 00:09:16;;;;;;;164.57;15.60;;;;;;;;;;5083530;28;20077;-53
2023/08/13 00:11:41;;;;;;;92.78;11.68;;;;;;;;;;5083212;28;20282;-55
2023/08/13 00:14:06;;;;;;;170.55;16.75;;;;;;;;;;5083176;28;20020;-55
2023/08/13 00:16:32;;;;;;;90.35;11.80;;;;;;;;;;5085986;28;20035;-52
2023/08/13 00:18:57;;;;;;;105.10;12.43;;;;;;;;;;5085825;28;20016;-54
2023/08/13 00:21:22;;;;;;;99.30;12.13;;;;;;;;;;5084396;28;20096;-56
2023/08/13 00:23:48;;;;;;;109.87;12.80;;;;;;;;;;5084725;28;20309;-53
2023/08/13 00:26:13;;;;;;;131.43;13.85;;;;;;;;;;5084362;28;20259;-53
2023/08/13 00:28:39;;;;;;;85.07;10.75;;;;;;;;;;5086399;28;20047;-53
2023/08/13 00:31:04;;;;;;;137.80;12.65;;;;;;;;;;5083232;28;20082;-53
2023/08/13 00:33:30;;;;;;;110.05;11.82;;;;;;;;;;5084750;28;20023;-53
2023/08/13 00:35:55;;;;;;;119.72;11.93;;;;;;;;;;5084406;28;20232;-51
2023/08/13 00:38:20;;;;;;;159.07;15.30;;;;;;;;;;5084576;28;20358;-54
2023/08/13 00:40:45;;;;;;;107.00;13.88;;;;;;;;;;5083209;28;23744;-53
2023/08/13 00:43:11;;;;;;;146.05;15.30;;;;;;;;;;5082044;28;20492;-53
2023/08/13 00:45:37;;;;;;;117.43;12.07;;;;;;;;;;5067086;28;20027;-54
2023/08/13 00:48:03;;;;;;;81.38;11.75;;;;;;;;;;5086869;27;20329;-53
2023/08/13 00:50:29;;;;;;;90.53;11.77;;;;;;;;;;5083478;28;20509;-55
2023/08/13 00:52:54;;;;;;;83.65;12.50;;;;;;;;;;5087052;28;20028;-54
2023/08/13 00:55:19;;;;;;;117.53;14.27;;;;;;;;;;5085654;28;20020;-53
2023/08/13 00:57:45;;;;;;;67.97;10.25;;;;;;;;;;5088713;28;20031;-53
2023/08/13 01:00:11;;;;;;;142.23;15.30;;;;;;;;;;5084197;28;20456;-53
2023/08/13 01:02:36;;;;;;;69.55;10.63;;;;;;;;;;5089179;28;20084;-53
2023/08/13 01:05:03;;;;;;;88.40;10.80;;;;;;;;;;5086060;28;20053;-53
2023/08/13 01:07:50;;;;;;;78.03;10.35;;;;;;;;;;5082858;28;20169;-54
2023/08/13 01:10:23;;;;;;;125.65;13.43;;;;;;;;;;5083096;28;20039;-53
2023/08/13 01:12:48;;;;;;;77.88;10.55;;;;;;;;;;5088181;28;20045;-53
2023/08/13 01:15:17;;;;;;;117.57;14.03;;;;;;;;;;5085018;28;20027;-53
2023/08/13 01:17:43;;;;;;;87.28;11.50;;;;;;;;;;5087872;28;20028;-54
2023/08/13 01:20:09;;;;;;;77.05;10.23;;;;;;;;;;5067793;28;20043;-54
2023/08/13 01:22:37;;;;;;;65.47;9.00;;;;;;;;;;5087268;28;20423;-52
2023/08/13 01:25:05;;;;;;;74.78;9.90;;;;;;;;;;5086326;28;20012;-52
2023/08/13 01:27:34;;;;;;;78.70;9.50;;;;;;;;;;5088075;28;20057;-54
2023/08/13 01:30:08;;;;;;;104.82;11.50;;;;;;;;;;5085343;28;20023;-54
2023/08/13 01:32:36;;;;;;;75.82;9.80;;;;;;;;;;5085832;28;20110;-53
2023/08/13 01:35:01;;;;;;;79.13;10.05;;;;;;;;;;5086533;28;20015;-54
2023/08/13 01:37:27;;;;;;;92.47;10.65;;;;;;;;;;5086087;28;20780;-54
2023/08/13 01:39:52;;;;;;;124.65;12.77;;;;;;;;;;5085569;28;20478;-52
2023/08/13 01:42:17;;;;;;;129.10;13.32;;;;;;;;;;5082870;28;20040;-53
2023/08/13 01:44:43;;;;;;;86.78;10.23;;;;;;;;;;5085879;28;20016;-55
2023/08/13 01:47:08;;;;;;;70.90;10.80;;;;;;;;;;5085144;28;20074;-54
2023/08/13 01:49:34;;;;;;;74.10;10.52;;;;;;;;;;5088240;28;20195;-53
2023/08/13 01:51:59;;;;;;;80.00;10.43;;;;;;;;;;5085123;28;20032;-54
2023/08/13 01:54:24;;;;;;;105.38;11.32;;;;;;;;;;5088957;28;20076;-54
2023/08/13 01:56:49;;;;;;;71.28;9.52;;;;;;;;;;5087151;28;20040;-54
2023/08/13 01:59:16;;;;;;;144.87;13.30;;;;;;;;;;5084692;28;20040;-52
2023/08/13 02:01:41;;;;;;;49.72;8.35;;;;;;;;;;5084785;28;20282;-55
2023/08/13 02:04:06;;;;;;;55.55;8.73;;;;;;;;;;5086627;28;20031;-53
2023/08/13 02:06:33;;;;;;;65.83;9.13;;;;;;;;;;5084631;28;20024;-53
2023/08/13 02:08:58;;;;;;;61.50;8.68;;;;;;;;;;5086073;28;20268;-54
2023/08/13 02:11:24;;;;;;;117.20;12.75;;;;;;;;;;5083192;28;20432;-54
2023/08/13 02:13:49;;;;;;;54.35;8.65;;;;;;;;;;5086418;28;20486;-54
2023/08/13 02:16:14;;;;;;;108.47;12.63;;;;;;;;;;5084832;28;20038;-54
2023/08/13 02:18:39;;;;;;;64.22;8.80;;;;;;;;;;5086419;28;20580;-53
2023/08/13 02:21:04;;;;;;;62.50;8.73;;;;;;;;;;5084809;28;20077;-54
2023/08/13 02:23:30;;;;;;;67.57;9.15;;;;;;;;;;5085257;28;20380;-53
2023/08/13 02:25:55;;;;;;;59.97;8.93;;;;;;;;;;5086348;28;20337;-54
2023/08/13 02:28:20;;;;;;;119.57;12.87;;;;;;;;;;5085779;28;20008;-53
2023/08/13 02:30:45;;;;;;;55.00;8.32;;;;;;;;;;5087867;28;20285;-55
2023/08/13 02:33:11;;;;;;;56.80;8.10;;;;;;;;;;5082338;28;20024;-54
2023/08/13 02:35:36;;;;;;;57.43;8.40;;;;;;;;;;5085829;28;20028;-53
2023/08/13 02:38:01;;;;;;;53.33;7.93;;;;;;;;;;5086877;28;20261;-55
2023/08/13 02:40:26;;;;;;;127.93;12.75;;;;;;;;;;5084125;28;20254;-53
2023/08/13 02:42:52;;;;;;;66.28;8.70;;;;;;;;;;5084852;28;20548;-53
2023/08/13 02:45:17;;;;;;;97.40;10.63;;;;;;;;;;5083886;28;20019;-52
2023/08/13 02:47:42;;;;;;;58.72;8.35;;;;;;;;;;5084366;28;20012;-54
2023/08/13 02:50:08;;;;;;;59.53;9.10;;;;;;;;;;5084870;28;20372;-53
2023/08/13 02:52:33;;;;;;;52.17;7.85;;;;;;;;;;5083657;28;20482;-53
2023/08/13 02:54:58;;;;;;;66.17;8.87;;;;;;;;;;5088126;27;20027;-54
2023/08/13 02:57:23;;;;;;;135.27;13.27;;;;;;;;;;5087799;28;20276;-53
2023/08/13 02:59:48;;;;;;;57.70;8.27;;;;;;;;;;5088720;28;20655;-52
2023/08/13 03:02:16;;;;;;;63.25;9.40;;;;;;;;;;5086296;28;20649;-55
2023/08/13 03:04:41;;;;;;;49.53;7.55;;;;;;;;;;5087784;28;20553;-54
2023/08/13 03:07:07;;;;;;;52.97;8.27;;;;;;;;;;5089753;28;20028;-54
2023/08/13 03:09:32;;;;;;;95.03;10.18;;;;;;;;;;5088961;28;20734;-54
2023/08/13 03:11:57;;;;;;;56.10;8.10;;;;;;;;;;5089287;28;20024;-53
2023/08/13 03:14:22;;;;;;;119.63;12.40;;;;;;;;;;5089866;28;20292;-54
2023/08/13 03:16:48;;;;;;;75.57;9.60;;;;;;;;;;5088340;28;20690;-53
2023/08/13 03:19:13;;;;;;;60.50;8.87;;;;;;;;;;5089566;28;20274;-52
2023/08/13 03:21:38;;;;;;;55.67;8.65;;;;;;;;;;5089529;28;20280;-54
2023/08/13 03:24:04;;;;;;;87.10;9.33;;;;;;;;;;5090041;28;20030;-55
2023/08/13 03:26:30;;;;;;;115.38;12.23;;;;;;;;;;5087395;28;20258;-53
2023/08/13 03:28:55;;;;;;;53.40;8.35;;;;;;;;;;5071058;28;20019;-53
2023/08/13 03:31:20;;;;;;;120.67;12.37;;;;;;;;;;5089919;28;20032;-53
2023/08/13 03:33:45;;;;;;;49.63;7.22;;;;;;;;;;5090124;28;20044;-55
2023/08/13 03:36:11;;;;;;;65.73;8.20;;;;;;;;;;5090449;28;20031;-54
2023/08/13 03:38:36;;;;;;;74.10;9.50;;;;;;;;;;5087326;28;21071;-56
2023/08/13 03:41:02;;;;;;;77.97;9.67;;;;;;;;;;5091159;27;20405;-56
2023/08/13 03:43:27;;;;;;;120.60;12.98;;;;;;;;;;5088385;28;20277;-55
2023/08/13 03:45:52;;;;;;;75.93;9.77;;;;;;;;;;5088683;28;20100;-55
2023/08/13 03:48:17;;;;;;;81.53;10.57;;;;;;;;;;5087059;28;20401;-56
2023/08/13 03:50:43;;;;;;;49.93;8.10;;;;;;;;;;5089020;28;20270;-55
2023/08/13 03:53:09;;;;;;;65.88;9.25;;;;;;;;;;5087887;28;20734;-55
2023/08/13 03:55:35;;;;;;;123.93;13.30;;;;;;;;;;5088144;28;20028;-54
2023/08/13 03:58:00;;;;;;;66.97;9.18;;;;;;;;;;5088306;28;20020;-53
2023/08/13 04:00:25;;;;;;;124.23;13.83;;;;;;;;;;5085299;28;20431;-54
2023/08/13 04:02:50;;;;;;;54.00;8.03;;;;;;;;;;5086730;28;20382;-53
2023/08/13 04:05:15;;;;;;;60.07;8.50;;;;;;;;;;5088749;28;20293;-54
2023/08/13 04:07:41;;;;;;;80.32;9.82;;;;;;;;;;5087322;28;20565;-54
2023/08/13 04:10:07;;;;;;;60.15;8.38;;;;;;;;;;5089105;28;20099;-56
2023/08/13 04:12:32;;;;;;;109.07;12.00;;;;;;;;;;5086652;28;20031;-54
2023/08/13 04:14:57;;;;;;;67.37;8.93;;;;;;;;;;5087455;28;20435;-55
2023/08/13 04:17:22;;;;;;;96.67;9.90;;;;;;;;;;5086659;28;21233;-54
2023/08/13 04:19:48;;;;;;;53.43;8.60;;;;;;;;;;5087227;28;20361;-55
2023/08/13 04:22:13;;;;;;;52.23;7.97;;;;;;;;;;5086835;28;20269;-54
2023/08/13 04:24:38;;;;;;;52.53;8.07;;;;;;;;;;5086207;28;20303;-53
2023/08/13 04:27:04;;;;;;;64.70;9.10;;;;;;;;;;5088650;28;20255;-53
2023/08/13 04:29:29;;;;;;;146.85;14.02;;;;;;;;;;5087532;28;20026;-53
2023/08/13 04:31:55;;;;;;;59.47;8.60;;;;;;;;;;5086209;28;20040;-55
2023/08/13 04:34:20;;;;;;;64.70;8.97;;;;;;;;;;5087272;28;20799;-53
2023/08/13 04:36:45;;;;;;;58.37;8.47;;;;;;;;;;5088222;28;20794;-54
2023/08/13 04:39:10;;;;;;;64.63;8.45;;;;;;;;;;5088793;28;20333;-53
2023/08/13 04:41:37;;;;;;;105.57;10.45;;;;;;;;;;5084779;28;20039;-55
2023/08/13 04:44:03;;;;;;;60.80;7.60;;;;;;;;;;5088800;28;20084;-53
2023/08/13 04:46:28;;;;;;;125.78;12.65;;;;;;;;;;5086072;28;20431;-54
2023/08/13 04:48:53;;;;;;;63.50;8.48;;;;;;;;;;5088722;28;20016;-53
2023/08/13 04:51:18;;;;;;;51.53;7.73;;;;;;;;;;5072419;28;20039;-56
2023/08/13 04:53:44;;;;;;;64.27;7.90;;;;;;;;;;5086246;28;20261;-54
2023/08/13 04:56:09;;;;;;;56.65;7.43;;;;;;;;;;5087302;28;20350;-56
2023/08/13 04:58:35;;;;;;;99.22;9.90;;;;;;;;;;5084509;28;20032;-54
2023/08/13 05:01:00;;;;;;;75.70;7.90;;;;;;;;;;5085736;28;20051;-55
2023/08/13 05:03:25;;;;;;;112.05;11.52;;;;;;;;;;5085318;28;20355;-55
2023/08/13 05:05:51;;;;;;;58.30;7.43;;;;;;;;;;5085702;28;20027;-54
2023/08/13 05:08:16;;;;;;;58.90;7.13;;;;;;;;;;5087827;28;20022;-56
2023/08/13 05:10:41;;;;;;;61.60;7.13;;;;;;;;;;5087151;28;20107;-56
2023/08/13 05:13:07;;;;;;;60.43;7.30;;;;;;;;;;5089129;28;20021;-56
2023/08/13 05:15:32;;;;;;;116.20;11.17;;;;;;;;;;5083707;28;20283;-54
2023/08/13 05:17:57;;;;;;;48.37;6.50;;;;;;;;;;5086179;28;20272;-54
2023/08/13 05:20:23;;;;;;;68.75;7.97;;;;;;;;;;5087018;28;20254;-56
2023/08/13 05:22:48;;;;;;;66.50;7.38;;;;;;;;;;5088206;28;20084;-54
2023/08/13 05:25:13;;;;;;;47.67;6.60;;;;;;;;;;5087161;28;20020;-55
2023/08/13 05:27:39;;;;;;;122.85;11.77;;;;;;;;;;5088323;28;20020;-55
2023/08/13 05:30:05;;;;;;;94.23;21.73;;;;;;;;;;5084983;28;20722;-56
2023/08/13 05:32:30;;;;;;;106.88;10.70;;;;;;;;;;5075061;28;20438;-55
2023/08/13 05:34:55;;;;;;;86.50;34.83;;;;;;;;;;5088158;28;20155;-56
2023/08/13 05:37:20;;;;;;;78.32;20.35;;;;;;;;;;5084886;28;20375;-54
2023/08/13 05:39:45;;;;;;;45.67;7.00;;;;;;;;;;5085617;28;20673;-54
2023/08/13 05:42:11;;;;;;;91.75;51.03;;;;;;;;;;5085491;28;20511;-55
2023/08/13 05:44:36;;;;;;;258.47;197.60;;;;;;;;;;5084249;28;20028;-55
2023/08/13 05:47:01;;;;;;;148.63;112.03;;;;;;;;;;5084523;28;20789;-54
2023/08/13 05:49:26;;;;;;;144.32;78.25;;;;;;;;;;5083221;28;20385;-54
2023/08/13 05:51:52;;;;;;;206.90;181.67;;;;;;;;;;5085213;28;20064;-54
2023/08/13 05:54:17;;;;;;;112.10;77.53;;;;;;;;;;5087855;28;20666;-55
2023/08/13 05:56:42;;;;;;;173.38;150.70;;;;;;;;;;5085578;28;20043;-54
2023/08/13 05:59:08;;;;;;;198.80;124.25;;;;;;;;;;5085069;28;20122;-53
2023/08/13 06:01:33;;;;;;;327.55;291.00;;;;;;;;;;5083990;28;20152;-57
2023/08/13 06:03:59;;;;;;;74.10;33.10;;;;;;;;;;5068681;28;20020;-56
2023/08/13 06:06:25;;;;;;;122.38;73.03;;;;;;;;;;5053296;28;20460;-55
2023/08/13 06:08:50;;;;;;;139.90;111.13;;;;;;;;;;5086454;28;20568;-55
2023/08/13 06:11:16;;;;;;;360.13;326.93;;;;;;;;;;5085883;28;20043;-56
2023/08/13 06:13:41;;;;;;;229.50;137.88;;;;;;;;;;5084018;28;20261;-55
2023/08/13 06:16:06;;;;;;;360.43;325.90;;;;;;;;;;5085751;28;20186;-54
2023/08/13 06:18:32;;;;;;;401.38;358.85;;;;;;;;;;5086021;28;20341;-54
2023/08/13 06:20:57;;;;;;;379.98;341.05;;;;;;;;;;5085220;28;20043;-53
2023/08/13 06:23:22;;;;;;;475.23;431.97;;;;;;;;;;5086678;28;20045;-53
2023/08/13 06:25:48;;;;;;;281.83;252.90;;;;;;;;;;5066406;28;20266;-55
2023/08/13 06:28:13;;;;;;;425.27;384.53;;;;;;;;;;5085538;28;20020;-55
2023/08/13 06:30:38;;;;;;;308.35;215.57;;;;;;;;;;5081794;28;20032;-54
2023/08/13 06:33:04;;;;;;;406.05;369.40;;;;;;;;;;5084799;28;20715;-54
2023/08/13 06:35:29;;;;;;;467.67;420.80;;;;;;;;;;5073570;28;20431;-53
2023/08/13 06:37:54;;;;;;;301.93;271.20;;;;;;;;;;5086561;28;20087;-54
2023/08/13 06:40:19;;;;;;;329.97;298.83;;;;;;;;;;5084371;28;20265;-55
2023/08/13 06:42:45;;;;;;;443.47;400.00;;;;;;;;;;5083939;28;21988;-54
2023/08/13 06:45:10;;;;;;;294.27;262.87;;;;;;;;;;5084482;28;20054;-55
2023/08/13 06:47:35;;;;;;;331.58;261.98;;;;;;;;;;5084657;28;21047;-57
2023/08/13 06:50:00;;;;;;;259.13;231.70;;;;;;;;;;5084578;28;20461;-53
2023/08/13 06:52:26;;;;;;;250.97;227.13;;;;;;;;;;5085266;28;20340;-54
2023/08/13 06:54:51;;;;;;;248.80;224.73;;;;;;;;;;5084710;28;20020;-52
2023/08/13 06:57:16;;;;;;;309.90;279.40;;;;;;;;;;5084953;28;20269;-53
2023/08/13 06:59:41;;;;;;;398.73;358.40;;;;;;;;;;5083074;28;20047;-56
2023/08/13 07:02:07;;;;;;;252.13;227.13;;;;;;;;;;5083986;28;20897;-55
2023/08/13 07:04:32;;;;;;;271.05;227.20;;;;;;;;;;5084866;28;20047;-52
2023/08/13 07:06:57;;;;;;;243.85;222.85;;;;;;;;;;5084766;28;20032;-51
2023/08/13 07:09:24;;;;;;;299.08;269.52;;;;;;;;;;5077373;28;20024;-53
2023/08/13 07:11:50;;;;;;;282.23;253.07;;;;;;;;;;5083985;28;20027;-51
2023/08/13 07:14:15;;;;;;;276.98;252.32;;;;;;;;;;5086597;28;20016;-54
2023/08/13 07:16:40;;;;;;;266.10;221.60;;;;;;;;;;5082552;28;20173;-53
2023/08/13 07:19:06;;;;;;;268.65;242.98;;;;;;;;;;5084073;28;20031;-52
2023/08/13 07:21:32;;;;;;;252.90;226.02;;;;;;;;;;5083687;28;20028;-52
2023/08/13 07:23:57;;;;;;;148.70;126.35;;;;;;;;;;5085272;28;20022;-53
2023/08/13 07:26:22;;;;;;;440.13;397.85;;;;;;;;;;5085692;28;20126;-52
2023/08/13 07:28:48;;;;;;;240.70;206.10;;;;;;;;;;5083144;28;20066;-54
2023/08/13 07:31:14;;;;;;;431.10;329.63;;;;;;;;;;5082721;28;20754;-55
2023/08/13 07:33:39;;;;;;;351.27;314.65;;;;;;;;;;5084744;28;20031;-55
2023/08/13 07:36:05;;;;;;;247.68;224.23;;;;;;;;;;5084491;28;20036;-56
2023/08/13 07:38:30;;;;;;;211.88;192.45;;;;;;;;;;5081994;28;20761;-55
2023/08/13 07:40:57;;;;;;;335.70;302.92;;;;;;;;;;5065938;28;20040;-55
2023/08/13 07:43:22;;;;;;;211.85;191.57;;;;;;;;;;5089194;28;20487;-56
2023/08/13 07:45:47;;;;;;;301.15;269.60;;;;;;;;;;5084746;28;20520;-56
2023/08/13 07:48:13;;;;;;;314.43;283.63;;;;;;;;;;5087530;28;20047;-55
2023/08/13 07:50:39;;;;;;;235.57;201.43;;;;;;;;;;5085642;28;20631;-55
2023/08/13 07:53:05;;;;;;;368.95;333.88;;;;;;;;;;5088355;28;20249;-54
2023/08/13 07:55:30;;;;;;;266.63;241.67;;;;;;;;;;5086554;28;20027;-53
2023/08/13 07:57:55;;;;;;;180.60;162.30;;;;;;;;;;5088739;28;20511;-54
2023/08/13 08:00:20;;;;;;;171.23;152.80;;;;;;;;;;5088255;28;20032;-56
2023/08/13 08:02:46;;;;;;;240.50;178.83;;;;;;;;;;5086952;28;20540;-54
2023/08/13 08:05:12;;;;;;;363.30;330.90;;;;;;;;;;5086357;28;20285;-54
2023/08/13 08:07:37;;;;;;;310.30;274.45;;;;;;;;;;5087372;28;20250;-54
2023/08/13 08:10:02;;;;;;;300.17;270.50;;;;;;;;;;5087386;28;20035;-53
2023/08/13 08:12:28;;;;;;;127.57;97.57;;;;;;;;;;5085806;28;20032;-55
2023/08/13 08:14:53;;;;;;;302.45;273.73;;;;;;;;;;5087557;28;20062;-56
2023/08/13 08:17:18;;;;;;;331.48;301.42;;;;;;;;;;5087485;28;20035;-57
2023/08/13 08:19:44;;;;;;;295.23;229.93;;;;;;;;;;5086421;28;20015;-55
2023/08/13 08:22:09;;;;;;;333.08;302.13;;;;;;;;;;5087334;28;20580;-56
2023/08/13 08:24:34;;;;;;;336.33;303.20;;;;;;;;;;5086502;28;20179;-54
2023/08/13 08:26:59;;;;;;;318.57;288.63;;;;;;;;;;5086200;28;20405;-54
2023/08/13 08:29:25;;;;;;;299.93;268.87;;;;;;;;;;5087693;28;20303;-54
2023/08/13 08:31:51;;;;;;;305.53;272.93;;;;;;;;;;5084346;28;20398;-55
2023/08/13 08:34:16;;;;;;;311.40;282.48;;;;;;;;;;5089117;28;20032;-54
2023/08/13 08:36:41;;;;;;;335.43;294.93;;;;;;;;;;5085075;28;20126;-56
2023/08/13 08:39:06;;;;;;;278.77;249.73;;;;;;;;;;5086654;28;20663;-56
2023/08/13 08:41:35;;;;;;;231.80;204.00;;;;;;;;;;5085567;28;20282;-57
2023/08/13 08:44:00;;;;;;;387.83;349.23;;;;;;;;;;5084127;28;20386;-54
2023/08/13 08:46:28;;;;;;;313.02;281.85;;;;;;;;;;5086523;28;20032;-55
2023/08/13 08:48:54;;;;;;;282.60;255.55;;;;;;;;;;5088058;28;20020;-56
2023/08/13 08:51:22;;;;;;;234.77;211.30;;;;;;;;;;5085991;28;20034;-54
2023/08/13 08:53:51;;;;;;;327.13;254.73;;;;;;;;;;5086001;28;20031;-53
2023/08/13 08:56:16;;;;;;;324.45;290.73;;;;;;;;;;5088930;28;20032;-55
2023/08/13 08:58:41;;;;;;;290.33;255.93;;;;;;;;;;5084881;28;20084;-55
2023/08/13 09:01:07;;;;;;;318.90;285.43;;;;;;;;;;5083760;28;20533;-56
2023/08/13 09:03:32;;;;;;;355.20;320.42;;;;;;;;;;5087095;28;20367;-55
2023/08/13 09:05:57;;;;;;;357.77;320.90;;;;;;;;;;5086173;28;20032;-55
2023/08/13 09:08:23;;;;;;;290.23;262.55;;;;;;;;;;5088558;28;20147;-55
2023/08/13 09:10:48;;;;;;;299.40;267.17;;;;;;;;;;5068416;28;20118;-54
2023/08/13 09:13:13;;;;;;;308.63;280.80;;;;;;;;;;5087659;28;20683;-54
2023/08/13 09:15:41;;;;;;;343.30;305.50;;;;;;;;;;5084869;28;20544;-55
2023/08/13 09:18:06;;;;;;;407.55;311.38;;;;;;;;;;5087526;28;20012;-55
2023/08/13 09:20:31;;;;;;;377.50;340.45;;;;;;;;;;5070759;28;20036;-53
2023/08/13 09:22:58;;;;;;;284.03;253.43;;;;;;;;;;5086067;28;20476;-55
2023/08/13 09:25:24;;;;;;;166.90;141.52;;;;;;;;;;5086473;28;20301;-55
2023/08/13 09:27:49;;;;;;;262.88;232.57;;;;;;;;;;5086017;28;20130;-54
2023/08/13 09:30:31;;;;;;;157.25;102.05;;;;;;;;;;5085230;28;20023;-54
2023/08/13 09:32:56;;;;;;;267.40;240.65;;;;;;;;;;5086514;28;20016;-53
2023/08/13 09:35:22;;;;;;;408.38;290.20;;;;;;;;;;5085887;28;20038;-55
2023/08/13 09:37:47;;;;;;;300.57;268.20;;;;;;;;;;5083818;28;20528;-52
2023/08/13 09:40:12;;;;;;;298.48;268.15;;;;;;;;;;5084668;28;20528;-53
2023/08/13 09:42:38;;;;;;;273.73;244.77;;;;;;;;;;5084204;28;20122;-56
2023/08/13 09:45:05;;;;;;;402.70;361.33;;;;;;;;;;5086005;28;20528;-52
2023/08/13 09:47:32;;;;;;;312.63;282.40;;;;;;;;;;5084417;28;20046;-55
2023/08/13 09:49:58;;;;;;;311.42;279.55;;;;;;;;;;5083763;28;20428;-54
2023/08/13 09:52:25;;;;;;;268.95;240.13;;;;;;;;;;5087093;28;20054;-54
2023/08/13 09:55:09;;;;;;;226.80;153.18;;;;;;;;;;5084204;28;20030;-52
2023/08/13 09:57:36;;;;;;;433.02;385.48;;;;;;;;;;5084107;28;20032;-53
2023/08/13 10:00:02;;;;;;;309.45;278.70;;;;;;;;;;5083579;28;20048;-52
2023/08/13 10:02:28;;;;;;;543.65;489.73;;;;;;;;;;5079584;28;20036;-54
2023/08/13 10:04:54;;;;;;;250.05;185.65;;;;;;;;;;5079130;27;20493;-53
2023/08/13 10:07:19;;;;;;;349.40;312.58;;;;;;;;;;5080333;28;20032;-52
2023/08/13 10:09:45;;;;;;;323.70;275.05;;;;;;;;;;5077512;28;20427;-53
2023/08/13 10:12:10;;;;;;;324.65;291.15;;;;;;;;;;5081075;28;20031;-51
2023/08/13 10:14:36;;;;;;;288.08;209.00;;;;;;;;;;5066465;28;20023;-53
2023/08/13 10:17:06;;;;;;;443.05;352.40;;;;;;;;;;5079252;28;20544;-54
2023/08/13 10:19:32;;;;;;;219.55;195.10;;;;;;;;;;5082928;28;20020;-55
2023/08/13 10:21:57;;;;;;;227.30;174.63;;;;;;;;;;5078431;28;20023;-55
2023/08/13 10:24:23;;;;;;;168.35;149.70;;;;;;;;;;5079719;28;20031;-56
2023/08/13 10:26:48;;;;;;;376.83;337.77;;;;;;;;;;5080516;28;20020;-55
2023/08/13 10:29:17;;;;;;;343.75;313.08;;;;;;;;;;5084735;28;20647;-57
2023/08/13 10:31:53;;;;;;;186.07;148.43;;;;;;;;;;5081720;28;20317;-55
2023/08/13 10:34:18;;;;;;;206.55;185.77;;;;;;;;;;5083395;28;20105;-56
2023/08/13 10:36:44;;;;;;;333.58;295.83;;;;;;;;;;5081989;28;20066;-54
2023/08/13 10:39:29;;;;;;;191.40;148.38;;;;;;;;;;5080851;28;20122;-54
2023/08/13 10:41:54;;;;;;;375.45;335.40;;;;;;;;;;5080499;28;20035;-53
2023/08/13 10:44:29;;;;;;;230.17;206.10;;;;;;;;;;5083960;28;20027;-53
2023/08/13 10:46:55;;;;;;;257.15;217.23;;;;;;;;;;5081385;28;20028;-55
2023/08/13 10:49:21;;;;;;;175.50;106.57;;;;;;;;;;5081537;28;20050;-56
2023/08/13 10:51:49;;;;;;;405.13;268.77;;;;;;;;;;5082599;28;20543;-54
2023/08/13 10:54:14;;;;;;;253.85;227.55;;;;;;;;;;5065391;28;20098;-54
2023/08/13 10:56:43;;;;;;;423.93;380.93;;;;;;;;;;5082792;28;20036;-54
2023/08/13 10:59:08;;;;;;;202.30;170.07;;;;;;;;;;5082496;28;20266;-55
2023/08/13 11:01:33;;;;;;;140.30;71.90;;;;;;;;;;5066167;28;20043;-56
2023/08/13 11:04:01;;;;;;;250.43;148.55;;;;;;;;;;5081775;28;20143;-54
2023/08/13 11:06:30;;;;;;;315.73;248.02;;;;;;;;;;5081607;28;20035;-57
2023/08/13 11:08:56;;;;;;;415.75;371.23;;;;;;;;;;5082324;28;20038;-55
2023/08/13 11:11:21;;;;;;;438.85;390.70;;;;;;;;;;5083788;28;20334;-57
2023/08/13 11:13:47;;;;;;;413.37;370.00;;;;;;;;;;5082351;28;20047;-53
2023/08/13 11:16:12;;;;;;;386.35;346.80;;;;;;;;;;5083895;28;20298;-55
2023/08/13 11:18:38;;;;;;;343.08;303.23;;;;;;;;;;5086187;28;20020;-53
2023/08/13 11:21:04;;;;;;;189.52;136.98;;;;;;;;;;5074565;28;20032;-54
2023/08/13 11:23:29;;;;;;;213.90;191.18;;;;;;;;;;5086363;28;20043;-55
2023/08/13 11:25:55;;;;;;;236.48;149.00;;;;;;;;;;5083450;27;20053;-53
2023/08/13 11:28:27;;;;;;;308.73;278.77;;;;;;;;;;5086234;28;20114;-53
2023/08/13 11:30:56;;;;;;;209.48;136.70;;;;;;;;;;5084589;28;20028;-54
2023/08/13 11:33:22;;;;;;;395.40;360.75;;;;;;;;;;5075876;28;20047;-56
2023/08/13 11:35:47;;;;;;;311.75;238.27;;;;;;;;;;5084827;28;20058;-53
2023/08/13 11:38:13;;;;;;;190.57;165.43;;;;;;;;;;5085983;28;20107;-55
2023/08/13 11:40:38;;;;;;;152.30;122.35;;;;;;;;;;5084917;28;20032;-53
2023/08/13 11:43:04;;;;;;;135.27;95.93;;;;;;;;;;5084409;28;21158;-54
2023/08/13 11:45:32;;;;;;;435.08;397.80;;;;;;;;;;5085897;28;20032;-54
2023/08/13 11:48:10;;;;;;;240.63;209.93;;;;;;;;;;5084542;28;20031;-52
2023/08/13 11:50:36;;;;;;;145.98;78.18;;;;;;;;;;5085986;28;20282;-56
2023/08/13 11:53:11;;;;;;;246.05;148.63;;;;;;;;;;5084035;28;20386;-57
2023/08/13 11:55:38;;;;;;;401.35;362.10;;;;;;;;;;5086480;28;20063;-56
2023/08/13 11:58:04;;;;;;;219.32;173.55;;;;;;;;;;5084008;28;20117;-54
2023/08/13 12:00:29;;;;;;;330.40;296.45;;;;;;;;;;5085510;28;20278;-55
2023/08/13 12:02:56;;;;;;;215.88;171.73;;;;;;;;;;5084006;28;20019;-55
2023/08/13 12:05:28;;;;;;;305.27;277.75;;;;;;;;;;5087463;28;20547;-55
2023/08/13 12:07:55;;;;;;;233.15;195.98;;;;;;;;;;5069472;28;20429;-54
2023/08/13 12:10:20;;;;;;;179.93;158.85;;;;;;;;;;5084000;28;20493;-54
2023/08/13 12:12:46;;;;;;;173.95;126.65;;;;;;;;;;5087365;28;20115;-55
2023/08/13 12:15:11;;;;;;;188.70;168.48;;;;;;;;;;5083776;28;20015;-53
2023/08/13 12:17:36;;;;;;;322.90;207.20;;;;;;;;;;5086761;28;20134;-56
2023/08/13 12:20:01;;;;;;;265.55;195.23;;;;;;;;;;5084744;28;20553;-54
2023/08/13 12:22:27;;;;;;;285.97;258.23;;;;;;;;;;5087125;28;20039;-54
2023/08/13 12:24:52;;;;;;;334.77;300.50;;;;;;;;;;5069871;28;20274;-58
2023/08/13 12:27:17;;;;;;;363.10;326.10;;;;;;;;;;5084478;28;20035;-54
2023/08/13 12:29:42;;;;;;;319.10;291.60;;;;;;;;;;5085360;28;20256;-53
2023/08/13 12:32:08;;;;;;;311.37;282.37;;;;;;;;;;5084211;28;20408;-55
2023/08/13 12:34:33;;;;;;;279.90;252.53;;;;;;;;;;5086048;28;20257;-56
2023/08/13 12:36:58;;;;;;;162.60;107.70;;;;;;;;;;5084488;28;21165;-54
2023/08/13 12:39:23;;;;;;;157.37;109.57;;;;;;;;;;5086426;28;20058;-55
2023/08/13 12:41:49;;;;;;;135.60;99.93;;;;;;;;;;5083911;28;20036;-55
2023/08/13 12:44:14;;;;;;;111.67;78.23;;;;;;;;;;5084379;28;20410;-55
2023/08/13 12:46:39;;;;;;;194.73;175.20;;;;;;;;;;5084738;28;20541;-53
2023/08/13 12:49:04;;;;;;;250.60;192.30;;;;;;;;;;5084743;28;20385;-54
2023/08/13 12:51:30;;;;;;;316.13;287.23;;;;;;;;;;5083370;27;20127;-54
2023/08/13 12:53:55;;;;;;;279.02;236.82;;;;;;;;;;5084689;28;20239;-54
2023/08/13 12:56:20;;;;;;;127.70;90.20;;;;;;;;;;5085931;28;20544;-56
2023/08/13 12:58:46;;;;;;;128.50;94.33;;;;;;;;;;5084270;28;20051;-53
2023/08/13 13:01:11;;;;;;;173.05;142.93;;;;;;;;;;5083631;28;20067;-55
2023/08/13 13:03:37;;;;;;;194.27;173.52;;;;;;;;;;5087209;28;20397;-56
2023/08/13 13:06:02;;;;;;;194.43;104.03;;;;;;;;;;5083668;28;20039;-56
2023/08/13 13:08:27;;;;;;;125.67;102.13;;;;;;;;;;5085990;28;20077;-56
2023/08/13 13:10:52;;;;;;;134.13;102.30;;;;;;;;;;5083869;28;20489;-55
2023/08/13 13:13:18;;;;;;;263.70;238.17;;;;;;;;;;5085890;28;20607;-55
2023/08/13 13:15:43;;;;;;;141.18;113.63;;;;;;;;;;5086254;28;20066;-55
2023/08/13 13:18:08;;;;;;;303.93;233.33;;;;;;;;;;5082146;28;20028;-56
2023/08/13 13:20:33;;;;;;;150.03;129.23;;;;;;;;;;5082604;28;20753;-55
2023/08/13 13:22:59;;;;;;;259.67;219.20;;;;;;;;;;5083663;28;20280;-54
2023/08/13 13:25:24;;;;;;;196.57;171.53;;;;;;;;;;5084388;28;20051;-57
2023/08/13 13:27:50;;;;;;;155.00;137.20;;;;;;;;;;5083295;28;20476;-54
2023/08/13 13:30:15;;;;;;;155.77;138.93;;;;;;;;;;5082846;28;20432;-55
2023/08/13 13:32:41;;;;;;;306.25;272.35;;;;;;;;;;5084669;28;20095;-58
2023/08/13 13:35:07;;;;;;;206.50;127.15;;;;;;;;;;5082903;28;20016;-55
2023/08/13 13:37:32;;;;;;;152.82;119.30;;;;;;;;;;5084503;28;20102;-56
2023/08/13 13:39:57;;;;;;;212.70;123.97;;;;;;;;;;5082927;28;20020;-55
2023/08/13 13:42:23;;;;;;;118.93;102.10;;;;;;;;;;5087157;28;20397;-56
2023/08/13 13:44:48;;;;;;;121.77;97.73;;;;;;;;;;5086175;28;20292;-55
2023/08/13 13:47:13;;;;;;;189.40;140.17;;;;;;;;;;5083761;28;20896;-56
2023/08/13 13:49:38;;;;;;;208.47;186.73;;;;;;;;;;5084492;28;20038;-55
2023/08/13 13:52:04;;;;;;;236.52;113.10;;;;;;;;;;5083061;28;20027;-54
2023/08/13 13:54:29;;;;;;;143.57;107.35;;;;;;;;;;5086024;28;20028;-54
2023/08/13 13:56:55;;;;;;;327.98;297.83;;;;;;;;;;5081431;28;20306;-53